sensor_id;sensor_type;location;lat;lon;timestamp;P1;durP1;ratioP1;P2;durP2;ratioP2
6131;SDS011;3097;42.692;23.278;2023-09-19T00:00:37;5.53;;;5.13;;
6131;SDS011;3097;42.692;23.278;2023-09-19T00:03:05;5.80;;;5.30;;
6131;SDS011;3097;42.692;23.278;2023-09-19T00:05:34;5.07;;;4.67;;
6131;SDS011;3097;42.692;23.278;2023-09-19T00:08:01;5.17;;;4.67;;
6131;SDS011;3097;42.692;23.278;2023-09-19T00:10:29;5.33;;;4.83;;
6131;SDS011;3097;42.692;23.278;2023-09-19T00:12:57;5.40;;;4.90;;
6131;SDS011;3097;42.692;23.278;2023-09-19T00:15:27;5.33;;;4.77;;
6131;SDS011;3097;42.692;23.278;2023-09-19T00:17:56;5.00;;;4.60;;
6131;SDS011;3097;42.692;23.278;2023-09-19T00:20:22;5.13;;;4.80;;
6131;SDS011;3097;42.692;23.278;2023-09-19T00:22:50;5.27;;;4.87;;
6131;SDS011;3097;42.692;23.278;2023-09-19T00:25:19;5.80;;;5.30;;
6131;SDS011;3097;42.692;23.278;2023-09-19T00:27:45;5.30;;;4.90;;
6131;SDS011;3097;42.692;23.278;2023-09-19T00:30:13;5.53;;;5.13;;
6131;SDS011;3097;42.692;23.278;2023-09-19T00:32:42;7.00;;;5.00;;
6131;SDS011;3097;42.692;23.278;2023-09-19T00:35:08;5.73;;;5.20;;
6131;SDS011;3097;42.692;23.278;2023-09-19T00:37:37;6.60;;;4.47;;
6131;SDS011;3097;42.692;23.278;2023-09-19T00:40:05;5.73;;;4.90;;
6131;SDS011;3097;42.692;23.278;2023-09-19T00:42:37;4.60;;;4.30;;
6131;SDS011;3097;42.692;23.278;2023-09-19T00:45:10;5.27;;;4.93;;
6131;SDS011;3097;42.692;23.278;2023-09-19T00:47:48;5.10;;;4.70;;
6131;SDS011;3097;42.692;23.278;2023-09-19T00:50:15;5.57;;;5.07;;
6131;SDS011;3097;42.692;23.278;2023-09-19T00:52:42;5.37;;;4.87;;
6131;SDS011;3097;42.692;23.278;2023-09-19T00:55:09;11.43;;;5.07;;
6131;SDS011;3097;42.692;23.278;2023-09-19T00:57:37;4.67;;;4.27;;
6131;SDS011;3097;42.692;23.278;2023-09-19T01:00:04;4.97;;;4.47;;
6131;SDS011;3097;42.692;23.278;2023-09-19T01:02:41;9.03;;;5.63;;
6131;SDS011;3097;42.692;23.278;2023-09-19T01:05:11;5.43;;;4.93;;
6131;SDS011;3097;42.692;23.278;2023-09-19T01:07:37;5.63;;;5.13;;
6131;SDS011;3097;42.692;23.278;2023-09-19T01:10:06;6.03;;;5.50;;
6131;SDS011;3097;42.692;23.278;2023-09-19T01:17:49;5.33;;;4.83;;
6131;SDS011;3097;42.692;23.278;2023-09-19T01:23:17;5.60;;;5.20;;
6131;SDS011;3097;42.692;23.278;2023-09-19T01:25:50;5.53;;;5.07;;
6131;SDS011;3097;42.692;23.278;2023-09-19T01:28:30;5.63;;;5.23;;
6131;SDS011;3097;42.692;23.278;2023-09-19T01:30:58;7.20;;;5.00;;
6131;SDS011;3097;42.692;23.278;2023-09-19T01:33:28;5.30;;;4.90;;
6131;SDS011;3097;42.692;23.278;2023-09-19T01:36:16;6.17;;;5.57;;
6131;SDS011;3097;42.692;23.278;2023-09-19T01:38:41;5.83;;;5.33;;
6131;SDS011;3097;42.692;23.278;2023-09-19T01:41:09;7.03;;;4.43;;
6131;SDS011;3097;42.692;23.278;2023-09-19T01:43:41;5.90;;;5.40;;
6131;SDS011;3097;42.692;23.278;2023-09-19T01:46:30;5.30;;;4.90;;
6131;SDS011;3097;42.692;23.278;2023-09-19T01:54:55;5.53;;;4.93;;
6131;SDS011;3097;42.692;23.278;2023-09-19T01:57:30;7.30;;;5.50;;
6131;SDS011;3097;42.692;23.278;2023-09-19T02:00:02;7.43;;;5.67;;
6131;SDS011;3097;42.692;23.278;2023-09-19T02:02:35;6.70;;;5.77;;
6131;SDS011;3097;42.692;23.278;2023-09-19T02:05:02;6.00;;;5.50;;
6131;SDS011;3097;42.692;23.278;2023-09-19T02:07:29;5.83;;;5.33;;
6131;SDS011;3097;42.692;23.278;2023-09-19T02:09:57;5.37;;;4.97;;
6131;SDS011;3097;42.692;23.278;2023-09-19T02:12:25;6.13;;;5.63;;
6131;SDS011;3097;42.692;23.278;2023-09-19T02:14:52;5.83;;;5.43;;
6131;SDS011;3097;42.692;23.278;2023-09-19T02:17:17;7.30;;;5.50;;
6131;SDS011;3097;42.692;23.278;2023-09-19T02:19:44;7.00;;;5.60;;
6131;SDS011;3097;42.692;23.278;2023-09-19T02:22:10;6.27;;;5.77;;
6131;SDS011;3097;42.692;23.278;2023-09-19T02:24:38;6.10;;;5.47;;
6131;SDS011;3097;42.692;23.278;2023-09-19T02:27:04;8.00;;;5.87;;
6131;SDS011;3097;42.692;23.278;2023-09-19T02:29:30;7.03;;;6.33;;
6131;SDS011;3097;42.692;23.278;2023-09-19T02:31:56;7.37;;;5.83;;
6131;SDS011;3097;42.692;23.278;2023-09-19T02:34:21;6.93;;;6.20;;
6131;SDS011;3097;42.692;23.278;2023-09-19T02:36:48;6.80;;;6.20;;
6131;SDS011;3097;42.692;23.278;2023-09-19T02:39:13;7.93;;;7.13;;
6131;SDS011;3097;42.692;23.278;2023-09-19T02:41:39;7.20;;;6.50;;
6131;SDS011;3097;42.692;23.278;2023-09-19T02:44:06;8.27;;;6.57;;
6131;SDS011;3097;42.692;23.278;2023-09-19T02:46:33;7.03;;;6.33;;
6131;SDS011;3097;42.692;23.278;2023-09-19T02:49:01;7.07;;;6.47;;
6131;SDS011;3097;42.692;23.278;2023-09-19T02:51:28;8.03;;;7.30;;
6131;SDS011;3097;42.692;23.278;2023-09-19T02:53:53;9.00;;;6.77;;
6131;SDS011;3097;42.692;23.278;2023-09-19T02:56:19;7.40;;;6.70;;
6131;SDS011;3097;42.692;23.278;2023-09-19T02:58:45;7.47;;;6.73;;
6131;SDS011;3097;42.692;23.278;2023-09-19T03:01:11;8.53;;;7.47;;
6131;SDS011;3097;42.692;23.278;2023-09-19T03:03:37;7.20;;;6.60;;
6131;SDS011;3097;42.692;23.278;2023-09-19T03:06:05;8.53;;;6.60;;
6131;SDS011;3097;42.692;23.278;2023-09-19T03:08:31;7.67;;;6.90;;
6131;SDS011;3097;42.692;23.278;2023-09-19T03:11:03;7.33;;;6.63;;
6131;SDS011;3097;42.692;23.278;2023-09-19T03:13:31;7.60;;;6.90;;
6131;SDS011;3097;42.692;23.278;2023-09-19T03:15:57;7.87;;;7.10;;
6131;SDS011;3097;42.692;23.278;2023-09-19T03:18:23;7.93;;;7.13;;
6131;SDS011;3097;42.692;23.278;2023-09-19T03:20:55;9.50;;;6.93;;
6131;SDS011;3097;42.692;23.278;2023-09-19T03:23:21;8.03;;;7.20;;
6131;SDS011;3097;42.692;23.278;2023-09-19T03:25:47;8.77;;;7.10;;
6131;SDS011;3097;42.692;23.278;2023-09-19T03:28:13;8.43;;;7.43;;
6131;SDS011;3097;42.692;23.278;2023-09-19T03:30:40;9.13;;;6.87;;
6131;SDS011;3097;42.692;23.278;2023-09-19T03:33:06;8.43;;;6.80;;
6131;SDS011;3097;42.692;23.278;2023-09-19T03:35:31;8.30;;;7.50;;
6131;SDS011;3097;42.692;23.278;2023-09-19T03:37:57;12.27;;;7.20;;
6131;SDS011;3097;42.692;23.278;2023-09-19T03:40:23;7.37;;;6.63;;
6131;SDS011;3097;42.692;23.278;2023-09-19T03:42:50;7.60;;;6.80;;
6131;SDS011;3097;42.692;23.278;2023-09-19T03:45:16;8.83;;;7.10;;
6131;SDS011;3097;42.692;23.278;2023-09-19T03:47:43;9.93;;;7.27;;
6131;SDS011;3097;42.692;23.278;2023-09-19T03:50:09;14.50;;;7.50;;
6131;SDS011;3097;42.692;23.278;2023-09-19T03:52:40;12.70;;;8.07;;
6131;SDS011;3097;42.692;23.278;2023-09-19T03:55:05;9.37;;;8.37;;
6131;SDS011;3097;42.692;23.278;2023-09-19T03:57:31;12.33;;;8.70;;
6131;SDS011;3097;42.692;23.278;2023-09-19T03:59:57;10.90;;;8.53;;
6131;SDS011;3097;42.692;23.278;2023-09-19T04:02:22;13.67;;;8.97;;
6131;SDS011;3097;42.692;23.278;2023-09-19T04:04:49;12.27;;;8.53;;
6131;SDS011;3097;42.692;23.278;2023-09-19T04:07:15;12.17;;;8.57;;
6131;SDS011;3097;42.692;23.278;2023-09-19T04:09:41;10.47;;;9.17;;
6131;SDS011;3097;42.692;23.278;2023-09-19T04:12:07;13.17;;;8.60;;
6131;SDS011;3097;42.692;23.278;2023-09-19T04:14:35;12.23;;;9.10;;
6131;SDS011;3097;42.692;23.278;2023-09-19T04:17:01;10.40;;;8.27;;
6131;SDS011;3097;42.692;23.278;2023-09-19T04:19:26;12.20;;;8.83;;
6131;SDS011;3097;42.692;23.278;2023-09-19T04:21:52;16.63;;;8.97;;
6131;SDS011;3097;42.692;23.278;2023-09-19T04:24:18;11.90;;;8.80;;
6131;SDS011;3097;42.692;23.278;2023-09-19T04:26:45;10.83;;;8.93;;
6131;SDS011;3097;42.692;23.278;2023-09-19T04:29:11;13.43;;;9.33;;
6131;SDS011;3097;42.692;23.278;2023-09-19T04:31:38;11.83;;;8.83;;
6131;SDS011;3097;42.692;23.278;2023-09-19T04:34:06;13.97;;;9.60;;
6131;SDS011;3097;42.692;23.278;2023-09-19T04:36:33;13.33;;;9.10;;
6131;SDS011;3097;42.692;23.278;2023-09-19T04:38:58;10.47;;;8.70;;
6131;SDS011;3097;42.692;23.278;2023-09-19T04:41:23;11.03;;;8.57;;
6131;SDS011;3097;42.692;23.278;2023-09-19T04:43:49;15.10;;;9.20;;
6131;SDS011;3097;42.692;23.278;2023-09-19T04:46:16;15.67;;;9.27;;
6131;SDS011;3097;42.692;23.278;2023-09-19T04:48:43;16.17;;;9.60;;
6131;SDS011;3097;42.692;23.278;2023-09-19T04:51:08;16.73;;;9.30;;
6131;SDS011;3097;42.692;23.278;2023-09-19T04:53:35;12.23;;;8.23;;
6131;SDS011;3097;42.692;23.278;2023-09-19T04:56:01;13.60;;;8.80;;
6131;SDS011;3097;42.692;23.278;2023-09-19T04:58:28;12.30;;;8.87;;
6131;SDS011;3097;42.692;23.278;2023-09-19T05:00:54;17.73;;;9.10;;
6131;SDS011;3097;42.692;23.278;2023-09-19T05:03:19;11.33;;;8.67;;
6131;SDS011;3097;42.692;23.278;2023-09-19T05:05:46;9.27;;;8.10;;
6131;SDS011;3097;42.692;23.278;2023-09-19T05:08:11;13.03;;;8.47;;
6131;SDS011;3097;42.692;23.278;2023-09-19T05:10:39;16.10;;;8.43;;
6131;SDS011;3097;42.692;23.278;2023-09-19T05:13:05;10.80;;;8.40;;
6131;SDS011;3097;42.692;23.278;2023-09-19T05:15:32;9.43;;;8.50;;
6131;SDS011;3097;42.692;23.278;2023-09-19T05:18:00;14.90;;;9.03;;
6131;SDS011;3097;42.692;23.278;2023-09-19T05:20:26;13.30;;;8.83;;
6131;SDS011;3097;42.692;23.278;2023-09-19T05:22:58;11.70;;;9.40;;
6131;SDS011;3097;42.692;23.278;2023-09-19T05:25:25;10.50;;;8.93;;
6131;SDS011;3097;42.692;23.278;2023-09-19T05:27:54;14.47;;;9.53;;
6131;SDS011;3097;42.692;23.278;2023-09-19T05:30:24;11.10;;;9.27;;
6131;SDS011;3097;42.692;23.278;2023-09-19T05:32:53;12.83;;;9.67;;
6131;SDS011;3097;42.692;23.278;2023-09-19T05:35:19;16.43;;;9.83;;
6131;SDS011;3097;42.692;23.278;2023-09-19T05:37:47;13.67;;;8.83;;
6131;SDS011;3097;42.692;23.278;2023-09-19T05:40:15;13.23;;;9.10;;
6131;SDS011;3097;42.692;23.278;2023-09-19T05:42:41;9.87;;;8.87;;
6131;SDS011;3097;42.692;23.278;2023-09-19T05:45:09;12.40;;;9.13;;
6131;SDS011;3097;42.692;23.278;2023-09-19T05:47:41;9.27;;;8.37;;
6131;SDS011;3097;42.692;23.278;2023-09-19T05:50:08;10.17;;;8.70;;
6131;SDS011;3097;42.692;23.278;2023-09-19T05:52:37;9.33;;;7.93;;
6131;SDS011;3097;42.692;23.278;2023-09-19T05:55:04;9.27;;;8.37;;
6131;SDS011;3097;42.692;23.278;2023-09-19T05:57:32;11.07;;;7.87;;
6131;SDS011;3097;42.692;23.278;2023-09-19T05:59:57;8.83;;;7.93;;
6131;SDS011;3097;42.692;23.278;2023-09-19T06:02:23;9.13;;;8.00;;
6131;SDS011;3097;42.692;23.278;2023-09-19T06:04:48;8.63;;;7.50;;
6131;SDS011;3097;42.692;23.278;2023-09-19T06:07:15;11.57;;;7.40;;
6131;SDS011;3097;42.692;23.278;2023-09-19T06:09:41;8.83;;;7.33;;
6131;SDS011;3097;42.692;23.278;2023-09-19T06:12:07;8.80;;;7.90;;
6131;SDS011;3097;42.692;23.278;2023-09-19T06:14:32;8.70;;;7.47;;
6131;SDS011;3097;42.692;23.278;2023-09-19T06:16:58;8.00;;;7.30;;
6131;SDS011;3097;42.692;23.278;2023-09-19T06:19:25;7.87;;;7.17;;
6131;SDS011;3097;42.692;23.278;2023-09-19T06:21:52;9.33;;;7.20;;
6131;SDS011;3097;42.692;23.278;2023-09-19T06:24:19;6.90;;;6.40;;
6131;SDS011;3097;42.692;23.278;2023-09-19T06:26:44;6.97;;;6.27;;
6131;SDS011;3097;42.692;23.278;2023-09-19T06:29:10;6.30;;;5.80;;
6131;SDS011;3097;42.692;23.278;2023-09-19T06:31:36;6.53;;;6.07;;
6131;SDS011;3097;42.692;23.278;2023-09-19T06:34:04;7.10;;;6.50;;
6131;SDS011;3097;42.692;23.278;2023-09-19T06:36:29;6.60;;;6.10;;
6131;SDS011;3097;42.692;23.278;2023-09-19T06:38:54;7.40;;;6.60;;
6131;SDS011;3097;42.692;23.278;2023-09-19T06:41:20;14.13;;;6.57;;
6131;SDS011;3097;42.692;23.278;2023-09-19T06:43:49;5.90;;;5.50;;
6131;SDS011;3097;42.692;23.278;2023-09-19T06:46:17;6.70;;;6.10;;
6131;SDS011;3097;42.692;23.278;2023-09-19T06:48:43;13.80;;;10.37;;
6131;SDS011;3097;42.692;23.278;2023-09-19T06:51:11;7.40;;;6.80;;
6131;SDS011;3097;42.692;23.278;2023-09-19T06:53:36;7.60;;;5.63;;
6131;SDS011;3097;42.692;23.278;2023-09-19T06:56:02;7.80;;;6.53;;
6131;SDS011;3097;42.692;23.278;2023-09-19T06:58:28;7.73;;;5.57;;
6131;SDS011;3097;42.692;23.278;2023-09-19T07:00:53;6.10;;;5.53;;
6131;SDS011;3097;42.692;23.278;2023-09-19T07:03:19;5.80;;;5.23;;
6131;SDS011;3097;42.692;23.278;2023-09-19T07:05:47;6.00;;;5.60;;
6131;SDS011;3097;42.692;23.278;2023-09-19T07:08:13;5.73;;;5.33;;
6131;SDS011;3097;42.692;23.278;2023-09-19T07:10:40;7.97;;;5.73;;
6131;SDS011;3097;42.692;23.278;2023-09-19T07:13:07;6.70;;;5.60;;
6131;SDS011;3097;42.692;23.278;2023-09-19T07:15:34;7.43;;;6.00;;
6131;SDS011;3097;42.692;23.278;2023-09-19T07:18:11;7.37;;;5.80;;
6131;SDS011;3097;42.692;23.278;2023-09-19T07:20:39;6.10;;;5.60;;
6131;SDS011;3097;42.692;23.278;2023-09-19T07:23:11;7.17;;;5.73;;
6131;SDS011;3097;42.692;23.278;2023-09-19T07:25:39;6.63;;;5.97;;
6131;SDS011;3097;42.692;23.278;2023-09-19T07:28:04;7.00;;;6.30;;
6131;SDS011;3097;42.692;23.278;2023-09-19T07:30:30;6.60;;;6.00;;
6131;SDS011;3097;42.692;23.278;2023-09-19T07:32:56;6.93;;;5.77;;
6131;SDS011;3097;42.692;23.278;2023-09-19T07:35:21;8.33;;;6.23;;
6131;SDS011;3097;42.692;23.278;2023-09-19T07:37:47;5.93;;;5.43;;
6131;SDS011;3097;42.692;23.278;2023-09-19T07:40:17;8.47;;;5.93;;
6131;SDS011;3097;42.692;23.278;2023-09-19T07:42:43;6.43;;;5.83;;
6131;SDS011;3097;42.692;23.278;2023-09-19T07:45:09;5.40;;;5.00;;
6131;SDS011;3097;42.692;23.278;2023-09-19T07:47:45;6.47;;;5.97;;
6131;SDS011;3097;42.692;23.278;2023-09-19T07:50:11;6.10;;;5.60;;
6131;SDS011;3097;42.692;23.278;2023-09-19T07:52:38;6.60;;;5.80;;
6131;SDS011;3097;42.692;23.278;2023-09-19T07:55:08;6.53;;;6.03;;
6131;SDS011;3097;42.692;23.278;2023-09-19T07:57:36;7.33;;;5.73;;
6131;SDS011;3097;42.692;23.278;2023-09-19T08:00:02;6.53;;;5.93;;
6131;SDS011;3097;42.692;23.278;2023-09-19T08:02:35;6.63;;;6.13;;
6131;SDS011;3097;42.692;23.278;2023-09-19T08:05:03;8.50;;;6.20;;
6131;SDS011;3097;42.692;23.278;2023-09-19T08:07:31;6.77;;;6.17;;
6131;SDS011;3097;42.692;23.278;2023-09-19T08:09:57;6.47;;;5.87;;
6131;SDS011;3097;42.692;23.278;2023-09-19T08:12:23;7.40;;;6.70;;
6131;SDS011;3097;42.692;23.278;2023-09-19T08:14:49;13.63;;;8.53;;
6131;SDS011;3097;42.692;23.278;2023-09-19T08:17:15;6.87;;;5.80;;
6131;SDS011;3097;42.692;23.278;2023-09-19T08:19:41;6.20;;;5.60;;
6131;SDS011;3097;42.692;23.278;2023-09-19T08:22:07;6.67;;;6.10;;
6131;SDS011;3097;42.692;23.278;2023-09-19T08:24:35;6.40;;;5.90;;
6131;SDS011;3097;42.692;23.278;2023-09-19T08:27:01;7.33;;;6.23;;
6131;SDS011;3097;42.692;23.278;2023-09-19T08:29:29;6.73;;;5.63;;
6131;SDS011;3097;42.692;23.278;2023-09-19T08:31:55;6.80;;;5.87;;
6131;SDS011;3097;42.692;23.278;2023-09-19T08:34:22;14.07;;;6.47;;
6131;SDS011;3097;42.692;23.278;2023-09-19T08:36:54;6.40;;;5.80;;
6131;SDS011;3097;42.692;23.278;2023-09-19T08:39:23;7.43;;;6.20;;
6131;SDS011;3097;42.692;23.278;2023-09-19T08:41:49;6.20;;;5.70;;
6131;SDS011;3097;42.692;23.278;2023-09-19T08:44:14;8.00;;;6.63;;
6131;SDS011;3097;42.692;23.278;2023-09-19T08:46:43;9.70;;;6.40;;
6131;SDS011;3097;42.692;23.278;2023-09-19T08:49:33;5.87;;;5.30;;
6131;SDS011;3097;42.692;23.278;2023-09-19T08:52:16;8.40;;;6.80;;
6131;SDS011;3097;42.692;23.278;2023-09-19T08:54:52;6.73;;;6.00;;
6131;SDS011;3097;42.692;23.278;2023-09-19T08:57:18;6.77;;;6.17;;
6131;SDS011;3097;42.692;23.278;2023-09-19T08:59:47;7.87;;;6.57;;
6131;SDS011;3097;42.692;23.278;2023-09-19T09:02:16;6.80;;;6.27;;
6131;SDS011;3097;42.692;23.278;2023-09-19T09:04:44;8.03;;;6.73;;
6131;SDS011;3097;42.692;23.278;2023-09-19T09:07:11;7.73;;;6.40;;
6131;SDS011;3097;42.692;23.278;2023-09-19T09:09:40;7.17;;;6.50;;
6131;SDS011;3097;42.692;23.278;2023-09-19T09:12:12;7.10;;;6.57;;
6131;SDS011;3097;42.692;23.278;2023-09-19T09:14:39;7.00;;;6.40;;
6131;SDS011;3097;42.692;23.278;2023-09-19T09:17:05;6.80;;;6.20;;
6131;SDS011;3097;42.692;23.278;2023-09-19T09:19:30;7.03;;;6.07;;
6131;SDS011;3097;42.692;23.278;2023-09-19T09:22:05;8.13;;;6.60;;
6131;SDS011;3097;42.692;23.278;2023-09-19T09:24:32;9.23;;;6.50;;
6131;SDS011;3097;42.692;23.278;2023-09-19T09:27:03;8.47;;;6.70;;
6131;SDS011;3097;42.692;23.278;2023-09-19T09:29:43;6.27;;;5.67;;
6131;SDS011;3097;42.692;23.278;2023-09-19T09:32:25;6.97;;;6.30;;
6131;SDS011;3097;42.692;23.278;2023-09-19T09:34:57;11.50;;;6.37;;
6131;SDS011;3097;42.692;23.278;2023-09-19T09:37:24;7.57;;;6.00;;
6131;SDS011;3097;42.692;23.278;2023-09-19T09:42:34;6.23;;;5.83;;
6131;SDS011;3097;42.692;23.278;2023-09-19T09:48:00;6.57;;;5.97;;
6131;SDS011;3097;42.692;23.278;2023-09-19T09:50:32;8.30;;;7.50;;
6131;SDS011;3097;42.692;23.278;2023-09-19T09:53:19;8.80;;;6.97;;
6131;SDS011;3097;42.692;23.278;2023-09-19T09:56:05;6.50;;;5.70;;
6131;SDS011;3097;42.692;23.278;2023-09-19T09:58:32;7.37;;;6.73;;
6131;SDS011;3097;42.692;23.278;2023-09-19T10:00:59;9.03;;;6.93;;
6131;SDS011;3097;42.692;23.278;2023-09-19T10:03:31;7.90;;;7.13;;
6131;SDS011;3097;42.692;23.278;2023-09-19T10:05:59;7.67;;;6.90;;
6131;SDS011;3097;42.692;23.278;2023-09-19T10:08:27;7.40;;;6.73;;
6131;SDS011;3097;42.692;23.278;2023-09-19T10:10:56;9.57;;;6.97;;
6131;SDS011;3097;42.692;23.278;2023-09-19T10:13:29;7.37;;;6.63;;
6131;SDS011;3097;42.692;23.278;2023-09-19T10:15:56;9.93;;;6.53;;
6131;SDS011;3097;42.692;23.278;2023-09-19T10:18:30;7.03;;;6.43;;
6131;SDS011;3097;42.692;23.278;2023-09-19T10:21:01;7.20;;;6.50;;
6131;SDS011;3097;42.692;23.278;2023-09-19T10:23:29;8.47;;;6.40;;
6131;SDS011;3097;42.692;23.278;2023-09-19T10:25:59;6.47;;;5.97;;
6131;SDS011;3097;42.692;23.278;2023-09-19T10:28:27;8.43;;;6.73;;
6131;SDS011;3097;42.692;23.278;2023-09-19T10:30:54;7.27;;;6.53;;
6131;SDS011;3097;42.692;23.278;2023-09-19T10:33:24;10.43;;;6.57;;
6131;SDS011;3097;42.692;23.278;2023-09-19T10:35:54;6.73;;;6.20;;
6131;SDS011;3097;42.692;23.278;2023-09-19T10:38:25;9.77;;;6.77;;
6131;SDS011;3097;42.692;23.278;2023-09-19T10:40:53;7.00;;;6.40;;
6131;SDS011;3097;42.692;23.278;2023-09-19T10:43:25;9.43;;;5.83;;
6131;SDS011;3097;42.692;23.278;2023-09-19T10:45:51;7.53;;;5.77;;
6131;SDS011;3097;42.692;23.278;2023-09-19T10:48:19;7.00;;;6.30;;
6131;SDS011;3097;42.692;23.278;2023-09-19T10:53:29;6.83;;;6.23;;
6131;SDS011;3097;42.692;23.278;2023-09-19T10:56:06;7.60;;;6.13;;
6131;SDS011;3097;42.692;23.278;2023-09-19T10:58:35;6.87;;;6.27;;
6131;SDS011;3097;42.692;23.278;2023-09-19T11:01:04;10.40;;;6.43;;
6131;SDS011;3097;42.692;23.278;2023-09-19T11:03:37;9.33;;;6.20;;
6131;SDS011;3097;42.692;23.278;2023-09-19T11:06:12;7.93;;;6.10;;
6131;SDS011;3097;42.692;23.278;2023-09-19T11:11:47;6.67;;;6.17;;
6131;SDS011;3097;42.692;23.278;2023-09-19T11:30:39;7.20;;;6.50;;
6131;SDS011;3097;42.692;23.278;2023-09-19T11:33:18;7.13;;;6.53;;
6131;SDS011;3097;42.692;23.278;2023-09-19T11:36:06;7.53;;;6.47;;
6131;SDS011;3097;42.692;23.278;2023-09-19T11:43:54;7.77;;;6.47;;
6131;SDS011;3097;42.692;23.278;2023-09-19T11:49:16;7.10;;;6.40;;
6131;SDS011;3097;42.692;23.278;2023-09-19T11:51:48;7.23;;;5.90;;
6131;SDS011;3097;42.692;23.278;2023-09-19T11:54:19;7.13;;;6.23;;
6131;SDS011;3097;42.692;23.278;2023-09-19T11:56:49;8.63;;;7.07;;
6131;SDS011;3097;42.692;23.278;2023-09-19T11:59:20;7.17;;;6.60;;
6131;SDS011;3097;42.692;23.278;2023-09-19T12:01:53;9.90;;;6.37;;
6131;SDS011;3097;42.692;23.278;2023-09-19T12:07:09;6.97;;;6.27;;
6131;SDS011;3097;42.692;23.278;2023-09-19T12:12:11;6.67;;;6.07;;
6131;SDS011;3097;42.692;23.278;2023-09-19T12:14:50;7.00;;;6.50;;
6131;SDS011;3097;42.692;23.278;2023-09-19T12:17:16;9.77;;;7.23;;
6131;SDS011;3097;42.692;23.278;2023-09-19T12:19:49;8.37;;;6.67;;
6131;SDS011;3097;42.692;23.278;2023-09-19T12:22:16;7.23;;;6.60;;
6131;SDS011;3097;42.692;23.278;2023-09-19T12:24:44;7.10;;;6.50;;
6131;SDS011;3097;42.692;23.278;2023-09-19T12:27:10;7.70;;;6.90;;
6131;SDS011;3097;42.692;23.278;2023-09-19T12:32:15;10.03;;;7.47;;
6131;SDS011;3097;42.692;23.278;2023-09-19T12:34:52;7.80;;;7.00;;
6131;SDS011;3097;42.692;23.278;2023-09-19T12:37:19;7.37;;;6.77;;
6131;SDS011;3097;42.692;23.278;2023-09-19T12:40:02;7.77;;;6.97;;
6131;SDS011;3097;42.692;23.278;2023-09-19T12:42:42;7.37;;;6.80;;
6131;SDS011;3097;42.692;23.278;2023-09-19T12:45:11;7.33;;;6.57;;
6131;SDS011;3097;42.692;23.278;2023-09-19T12:47:40;7.73;;;6.80;;
6131;SDS011;3097;42.692;23.278;2023-09-19T12:50:25;7.63;;;7.03;;
6131;SDS011;3097;42.692;23.278;2023-09-19T12:52:54;7.10;;;6.50;;
6131;SDS011;3097;42.692;23.278;2023-09-19T12:55:30;7.30;;;6.70;;
6131;SDS011;3097;42.692;23.278;2023-09-19T13:00:36;7.13;;;6.53;;
6131;SDS011;3097;42.692;23.278;2023-09-19T13:03:10;6.50;;;5.93;;
6131;SDS011;3097;42.692;23.278;2023-09-19T13:08:18;7.00;;;6.40;;
6131;SDS011;3097;42.692;23.278;2023-09-19T13:13:40;7.13;;;6.13;;
6131;SDS011;3097;42.692;23.278;2023-09-19T13:16:52;7.27;;;6.67;;
6131;SDS011;3097;42.692;23.278;2023-09-19T13:19:34;6.80;;;6.20;;
6131;SDS011;3097;42.692;23.278;2023-09-19T13:22:00;11.50;;;9.73;;
6131;SDS011;3097;42.692;23.278;2023-09-19T13:24:26;6.70;;;6.20;;
6131;SDS011;3097;42.692;23.278;2023-09-19T13:26:53;6.77;;;6.27;;
6131;SDS011;3097;42.692;23.278;2023-09-19T13:29:19;6.97;;;6.43;;
6131;SDS011;3097;42.692;23.278;2023-09-19T13:31:45;6.90;;;6.40;;
6131;SDS011;3097;42.692;23.278;2023-09-19T13:34:12;6.70;;;6.20;;
6131;SDS011;3097;42.692;23.278;2023-09-19T13:36:39;8.97;;;6.33;;
6131;SDS011;3097;42.692;23.278;2023-09-19T13:39:04;6.80;;;6.20;;
6131;SDS011;3097;42.692;23.278;2023-09-19T13:41:30;7.10;;;6.50;;
6131;SDS011;3097;42.692;23.278;2023-09-19T13:43:57;6.90;;;6.27;;
6131;SDS011;3097;42.692;23.278;2023-09-19T13:46:23;6.70;;;6.10;;
6131;SDS011;3097;42.692;23.278;2023-09-19T13:48:51;7.30;;;6.63;;
6131;SDS011;3097;42.692;23.278;2023-09-19T13:51:20;6.63;;;6.13;;
6131;SDS011;3097;42.692;23.278;2023-09-19T13:53:49;6.83;;;6.33;;
6131;SDS011;3097;42.692;23.278;2023-09-19T13:56:15;7.00;;;6.40;;
6131;SDS011;3097;42.692;23.278;2023-09-19T13:58:41;7.37;;;6.67;;
6131;SDS011;3097;42.692;23.278;2023-09-19T14:01:07;6.50;;;6.00;;
6131;SDS011;3097;42.692;23.278;2023-09-19T14:03:37;7.90;;;6.67;;
6131;SDS011;3097;42.692;23.278;2023-09-19T14:06:03;8.10;;;6.77;;
6131;SDS011;3097;42.692;23.278;2023-09-19T14:08:29;9.00;;;6.40;;
6131;SDS011;3097;42.692;23.278;2023-09-19T14:10:54;8.50;;;6.17;;
6131;SDS011;3097;42.692;23.278;2023-09-19T14:13:20;6.97;;;6.40;;
6131;SDS011;3097;42.692;23.278;2023-09-19T14:15:46;10.57;;;6.17;;
6131;SDS011;3097;42.692;23.278;2023-09-19T14:18:11;7.37;;;6.73;;
6131;SDS011;3097;42.692;23.278;2023-09-19T14:20:40;8.37;;;6.53;;
6131;SDS011;3097;42.692;23.278;2023-09-19T14:23:06;9.97;;;6.47;;
6131;SDS011;3097;42.692;23.278;2023-09-19T14:25:33;6.60;;;6.17;;
6131;SDS011;3097;42.692;23.278;2023-09-19T14:28:00;7.20;;;6.50;;
6131;SDS011;3097;42.692;23.278;2023-09-19T14:30:25;6.90;;;6.40;;
6131;SDS011;3097;42.692;23.278;2023-09-19T14:32:51;10.97;;;6.60;;
6131;SDS011;3097;42.692;23.278;2023-09-19T14:35:16;8.03;;;6.23;;
6131;SDS011;3097;42.692;23.278;2023-09-19T14:37:42;7.33;;;6.53;;
6131;SDS011;3097;42.692;23.278;2023-09-19T14:40:08;7.17;;;6.47;;
6131;SDS011;3097;42.692;23.278;2023-09-19T14:42:38;7.77;;;6.17;;
6131;SDS011;3097;42.692;23.278;2023-09-19T14:45:04;7.30;;;6.63;;
6131;SDS011;3097;42.692;23.278;2023-09-19T14:47:31;8.07;;;7.20;;
6131;SDS011;3097;42.692;23.278;2023-09-19T14:50:01;6.97;;;6.47;;
6131;SDS011;3097;42.692;23.278;2023-09-19T14:52:27;8.20;;;7.37;;
6131;SDS011;3097;42.692;23.278;2023-09-19T14:54:54;7.40;;;6.80;;
6131;SDS011;3097;42.692;23.278;2023-09-19T14:57:19;8.87;;;6.90;;
6131;SDS011;3097;42.692;23.278;2023-09-19T14:59:45;7.63;;;6.87;;
6131;SDS011;3097;42.692;23.278;2023-09-19T15:02:11;7.17;;;6.50;;
6131;SDS011;3097;42.692;23.278;2023-09-19T15:04:36;8.43;;;6.70;;
6131;SDS011;3097;42.692;23.278;2023-09-19T15:07:05;7.87;;;7.17;;
6131;SDS011;3097;42.692;23.278;2023-09-19T15:09:31;8.10;;;7.33;;
6131;SDS011;3097;42.692;23.278;2023-09-19T15:11:58;7.47;;;6.87;;
6131;SDS011;3097;42.692;23.278;2023-09-19T15:14:24;8.90;;;6.77;;
6131;SDS011;3097;42.692;23.278;2023-09-19T15:16:50;7.20;;;6.70;;
6131;SDS011;3097;42.692;23.278;2023-09-19T15:19:15;9.63;;;8.73;;
6131;SDS011;3097;42.692;23.278;2023-09-19T15:21:42;9.60;;;8.60;;
6131;SDS011;3097;42.692;23.278;2023-09-19T15:24:08;15.50;;;13.90;;
6131;SDS011;3097;42.692;23.278;2023-09-19T15:26:35;26.83;;;20.63;;
6131;SDS011;3097;42.692;23.278;2023-09-19T15:29:07;9.80;;;8.27;;
6131;SDS011;3097;42.692;23.278;2023-09-19T15:31:33;8.30;;;7.60;;
6131;SDS011;3097;42.692;23.278;2023-09-19T15:34:02;18.13;;;15.67;;
6131;SDS011;3097;42.692;23.278;2023-09-19T15:36:28;18.73;;;14.67;;
6131;SDS011;3097;42.692;23.278;2023-09-19T15:41:27;9.27;;;8.30;;
6131;SDS011;3097;42.692;23.278;2023-09-19T15:43:54;8.93;;;8.13;;
6131;SDS011;3097;42.692;23.278;2023-09-19T15:46:20;10.43;;;9.47;;
6131;SDS011;3097;42.692;23.278;2023-09-19T15:48:46;11.40;;;8.13;;
6131;SDS011;3097;42.692;23.278;2023-09-19T15:51:12;12.43;;;8.53;;
6131;SDS011;3097;42.692;23.278;2023-09-19T15:53:50;10.40;;;9.30;;
6131;SDS011;3097;42.692;23.278;2023-09-19T15:56:18;8.77;;;7.87;;
6131;SDS011;3097;42.692;23.278;2023-09-19T15:58:46;8.30;;;7.60;;
6131;SDS011;3097;42.692;23.278;2023-09-19T16:01:13;8.57;;;7.30;;
6131;SDS011;3097;42.692;23.278;2023-09-19T16:03:42;9.73;;;8.87;;
6131;SDS011;3097;42.692;23.278;2023-09-19T16:06:12;10.57;;;8.23;;
6131;SDS011;3097;42.692;23.278;2023-09-19T16:08:46;16.73;;;14.37;;
6131;SDS011;3097;42.692;23.278;2023-09-19T16:11:12;15.10;;;11.93;;
6131;SDS011;3097;42.692;23.278;2023-09-19T16:13:39;14.17;;;12.67;;